Ajax, Louisiana
Current Conditions -  °F | °C
As of 9:15 PM on Sunday 21 Dec 2014 (Local Time) from KIER Reporting Station
Overcast Overcast  
Wind Chill: 11°   Ceiling: 700
Heat Index: 11°   Visibility: 10mi
Dew Point: 10°   Wind: 0mph
Humidity: 95%   Direction: NA
Pressure: 29.93"   Gusts: NA
Location:  31.7926°N, 93.4001°W
Report Text: KIER 220315Z AUTO 00000KT 10SM OVC007 11/10 A2993 RMK AO2 T01050098
Loading
Personal Weather Stations






























Interactive Weather Map New forecast layout! Learn more

10-Day Weather Forecast

Advertisements
Track Severe Weather on mobile